sensor_id;sensor_type;location;lat;lon;timestamp;temperature;humidity
23347;DHT22;36852;45.466;11.066;2024-01-06T00:00:51;12.10;99.90
23347;DHT22;36852;45.466;11.066;2024-01-06T00:03:19;12.10;99.90
23347;DHT22;36852;45.466;11.066;2024-01-06T00:05:47;12.20;99.90
23347;DHT22;36852;45.466;11.066;2024-01-06T00:08:15;12.20;99.90
23347;DHT22;36852;45.466;11.066;2024-01-06T00:10:43;12.20;99.90
23347;DHT22;36852;45.466;11.066;2024-01-06T00:13:12;12.20;99.90
23347;DHT22;36852;45.466;11.066;2024-01-06T00:15:40;12.20;99.90
23347;DHT22;36852;45.466;11.066;2024-01-06T00:18:08;12.20;99.90
23347;DHT22;36852;45.466;11.066;2024-01-06T00:20:37;12.20;99.90
23347;DHT22;36852;45.466;11.066;2024-01-06T00:23:08;12.20;99.90
23347;DHT22;36852;45.466;11.066;2024-01-06T00:25:36;12.20;99.90
23347;DHT22;36852;45.466;11.066;2024-01-06T00:28:04;12.20;99.90
23347;DHT22;36852;45.466;11.066;2024-01-06T00:30:32;12.20;99.90
23347;DHT22;36852;45.466;11.066;2024-01-06T00:33:00;12.20;99.90
23347;DHT22;36852;45.466;11.066;2024-01-06T00:35:29;12.20;99.90
23347;DHT22;36852;45.466;11.066;2024-01-06T00:37:57;12.20;99.90
23347;DHT22;36852;45.466;11.066;2024-01-06T00:40:30;12.20;99.90
23347;DHT22;36852;45.466;11.066;2024-01-06T00:43:00;12.20;99.90
23347;DHT22;36852;45.466;11.066;2024-01-06T00:45:29;12.20;99.90
23347;DHT22;36852;45.466;11.066;2024-01-06T00:47:58;12.20;99.90
23347;DHT22;36852;45.466;11.066;2024-01-06T00:50:26;12.20;99.90
23347;DHT22;36852;45.466;11.066;2024-01-06T00:52:54;12.20;99.90
23347;DHT22;36852;45.466;11.066;2024-01-06T00:55:22;12.20;99.90
23347;DHT22;36852;45.466;11.066;2024-01-06T00:57:53;12.20;99.90
23347;DHT22;36852;45.466;11.066;2024-01-06T01:00:22;12.20;99.90
23347;DHT22;36852;45.466;11.066;2024-01-06T01:02:53;12.20;99.90
23347;DHT22;36852;45.466;11.066;2024-01-06T01:05:21;12.20;99.90
23347;DHT22;36852;45.466;11.066;2024-01-06T01:07:52;12.20;99.90
23347;DHT22;36852;45.466;11.066;2024-01-06T01:10:21;12.20;99.90
23347;DHT22;36852;45.466;11.066;2024-01-06T01:12:49;12.20;99.90
23347;DHT22;36852;45.466;11.066;2024-01-06T01:15:18;12.30;99.90
23347;DHT22;36852;45.466;11.066;2024-01-06T01:17:46;12.30;99.90
23347;DHT22;36852;45.466;11.066;2024-01-06T01:20:15;12.30;99.90
23347;DHT22;36852;45.466;11.066;2024-01-06T01:22:43;12.30;99.90
23347;DHT22;36852;45.466;11.066;2024-01-06T01:25:11;12.30;99.90
23347;DHT22;36852;45.466;11.066;2024-01-06T01:27:40;12.30;99.90
23347;DHT22;36852;45.466;11.066;2024-01-06T01:30:09;12.30;99.90
23347;DHT22;36852;45.466;11.066;2024-01-06T01:32:40;12.30;99.90
23347;DHT22;36852;45.466;11.066;2024-01-06T01:35:09;12.30;99.90
23347;DHT22;36852;45.466;11.066;2024-01-06T01:37:37;12.30;99.90
23347;DHT22;36852;45.466;11.066;2024-01-06T01:40:06;12.30;99.90
23347;DHT22;36852;45.466;11.066;2024-01-06T01:42:34;12.30;99.90
23347;DHT22;36852;45.466;11.066;2024-01-06T01:45:03;12.30;99.90
23347;DHT22;36852;45.466;11.066;2024-01-06T01:47:33;12.30;99.90
23347;DHT22;36852;45.466;11.066;2024-01-06T01:50:06;12.30;99.90
23347;DHT22;36852;45.466;11.066;2024-01-06T01:52:36;12.30;99.90
23347;DHT22;36852;45.466;11.066;2024-01-06T01:55:04;12.30;99.90
23347;DHT22;36852;45.466;11.066;2024-01-06T01:57:33;12.30;99.90
23347;DHT22;36852;45.466;11.066;2024-01-06T02:00:01;12.30;99.90
23347;DHT22;36852;45.466;11.066;2024-01-06T02:02:32;12.30;99.90
23347;DHT22;36852;45.466;11.066;2024-01-06T02:05:00;12.30;99.90
23347;DHT22;36852;45.466;11.066;2024-01-06T02:07:29;12.30;99.90
23347;DHT22;36852;45.466;11.066;2024-01-06T02:09:57;12.30;99.90
23347;DHT22;36852;45.466;11.066;2024-01-06T02:12:26;12.30;99.90
23347;DHT22;36852;45.466;11.066;2024-01-06T02:14:53;12.30;99.90
23347;DHT22;36852;45.466;11.066;2024-01-06T02:17:25;12.30;99.90
23347;DHT22;36852;45.466;11.066;2024-01-06T02:19:53;12.40;99.90
23347;DHT22;36852;45.466;11.066;2024-01-06T02:22:22;12.40;99.90
23347;DHT22;36852;45.466;11.066;2024-01-06T02:24:53;12.40;99.90
23347;DHT22;36852;45.466;11.066;2024-01-06T02:27:21;12.40;99.90
23347;DHT22;36852;45.466;11.066;2024-01-06T02:29:50;12.40;99.90
23347;DHT22;36852;45.466;11.066;2024-01-06T02:32:18;12.40;99.90
23347;DHT22;36852;45.466;11.066;2024-01-06T02:34:46;12.40;99.90
23347;DHT22;36852;45.466;11.066;2024-01-06T02:37:14;12.40;99.90
23347;DHT22;36852;45.466;11.066;2024-01-06T02:39:45;12.40;99.90
23347;DHT22;36852;45.466;11.066;2024-01-06T02:42:14;12.40;99.90
23347;DHT22;36852;45.466;11.066;2024-01-06T02:44:43;12.40;99.90
23347;DHT22;36852;45.466;11.066;2024-01-06T02:47:13;12.40;99.90
23347;DHT22;36852;45.466;11.066;2024-01-06T02:49:43;12.40;99.90
23347;DHT22;36852;45.466;11.066;2024-01-06T02:52:12;12.40;99.90
23347;DHT22;36852;45.466;11.066;2024-01-06T02:54:40;12.40;99.90
23347;DHT22;36852;45.466;11.066;2024-01-06T02:57:11;12.40;99.90
23347;DHT22;36852;45.466;11.066;2024-01-06T02:59:43;12.40;99.90
23347;DHT22;36852;45.466;11.066;2024-01-06T03:02:11;12.40;99.90
23347;DHT22;36852;45.466;11.066;2024-01-06T03:04:39;12.40;99.90
23347;DHT22;36852;45.466;11.066;2024-01-06T03:07:08;12.40;99.90
23347;DHT22;36852;45.466;11.066;2024-01-06T03:09:36;12.50;99.90
23347;DHT22;36852;45.466;11.066;2024-01-06T03:12:06;12.50;99.90
23347;DHT22;36852;45.466;11.066;2024-01-06T03:14:35;12.40;99.90
23347;DHT22;36852;45.466;11.066;2024-01-06T03:17:03;12.40;99.90
23347;DHT22;36852;45.466;11.066;2024-01-06T03:19:32;12.40;99.90
23347;DHT22;36852;45.466;11.066;2024-01-06T03:22:00;12.40;99.90
23347;DHT22;36852;45.466;11.066;2024-01-06T03:24:28;12.50;99.90
23347;DHT22;36852;45.466;11.066;2024-01-06T03:26:57;12.40;99.90
23347;DHT22;36852;45.466;11.066;2024-01-06T03:29:25;12.40;99.90
23347;DHT22;36852;45.466;11.066;2024-01-06T03:31:54;12.40;99.90
23347;DHT22;36852;45.466;11.066;2024-01-06T03:34:22;12.40;99.90
23347;DHT22;36852;45.466;11.066;2024-01-06T03:36:50;12.40;99.90
23347;DHT22;36852;45.466;11.066;2024-01-06T03:39:19;12.30;99.90
23347;DHT22;36852;45.466;11.066;2024-01-06T03:41:48;12.30;99.90
23347;DHT22;36852;45.466;11.066;2024-01-06T03:44:16;12.30;99.90
23347;DHT22;36852;45.466;11.066;2024-01-06T03:46:43;12.30;99.90
23347;DHT22;36852;45.466;11.066;2024-01-06T03:49:12;12.20;99.90
23347;DHT22;36852;45.466;11.066;2024-01-06T03:51:41;12.20;99.90
23347;DHT22;36852;45.466;11.066;2024-01-06T03:54:10;12.20;99.90
23347;DHT22;36852;45.466;11.066;2024-01-06T03:56:38;12.20;99.90
23347;DHT22;36852;45.466;11.066;2024-01-06T03:59:08;12.20;99.90
23347;DHT22;36852;45.466;11.066;2024-01-06T04:01:36;12.10;99.90
23347;DHT22;36852;45.466;11.066;2024-01-06T04:04:05;12.10;99.90
23347;DHT22;36852;45.466;11.066;2024-01-06T04:06:33;12.10;99.90
23347;DHT22;36852;45.466;11.066;2024-01-06T04:09:01;12.10;99.90
23347;DHT22;36852;45.466;11.066;2024-01-06T04:11:29;12.10;99.90
23347;DHT22;36852;45.466;11.066;2024-01-06T04:13:58;12.00;99.90
23347;DHT22;36852;45.466;11.066;2024-01-06T04:16:26;12.00;99.90
23347;DHT22;36852;45.466;11.066;2024-01-06T04:18:55;12.00;99.90
23347;DHT22;36852;45.466;11.066;2024-01-06T04:21:24;11.90;99.90
23347;DHT22;36852;45.466;11.066;2024-01-06T04:23:52;11.90;99.90
23347;DHT22;36852;45.466;11.066;2024-01-06T04:26:20;11.90;99.90
23347;DHT22;36852;45.466;11.066;2024-01-06T04:28:49;11.90;99.90
23347;DHT22;36852;45.466;11.066;2024-01-06T04:31:17;11.90;99.90
23347;DHT22;36852;45.466;11.066;2024-01-06T04:33:45;11.90;99.90
23347;DHT22;36852;45.466;11.066;2024-01-06T04:36:14;11.90;99.90
23347;DHT22;36852;45.466;11.066;2024-01-06T04:38:43;11.80;99.90
23347;DHT22;36852;45.466;11.066;2024-01-06T04:41:11;11.70;99.90
23347;DHT22;36852;45.466;11.066;2024-01-06T04:43:39;11.70;99.90
23347;DHT22;36852;45.466;11.066;2024-01-06T04:46:08;11.70;99.90
23347;DHT22;36852;45.466;11.066;2024-01-06T04:48:40;11.70;99.90
23347;DHT22;36852;45.466;11.066;2024-01-06T04:51:11;11.60;99.90
23347;DHT22;36852;45.466;11.066;2024-01-06T04:53:40;11.60;99.90
23347;DHT22;36852;45.466;11.066;2024-01-06T04:56:09;11.60;99.90
23347;DHT22;36852;45.466;11.066;2024-01-06T04:58:37;11.50;99.90
23347;DHT22;36852;45.466;11.066;2024-01-06T05:01:06;11.60;99.90
23347;DHT22;36852;45.466;11.066;2024-01-06T05:03:36;11.60;99.90
23347;DHT22;36852;45.466;11.066;2024-01-06T05:06:04;11.60;99.90
23347;DHT22;36852;45.466;11.066;2024-01-06T05:08:32;11.60;99.90
23347;DHT22;36852;45.466;11.066;2024-01-06T05:11:00;11.60;99.90
23347;DHT22;36852;45.466;11.066;2024-01-06T05:13:28;11.50;99.90
23347;DHT22;36852;45.466;11.066;2024-01-06T05:15:57;11.40;99.90
23347;DHT22;36852;45.466;11.066;2024-01-06T05:18:30;11.40;99.90
23347;DHT22;36852;45.466;11.066;2024-01-06T05:20:59;11.50;99.90
23347;DHT22;36852;45.466;11.066;2024-01-06T05:23:28;11.50;99.90
23347;DHT22;36852;45.466;11.066;2024-01-06T05:25:57;11.50;99.90
23347;DHT22;36852;45.466;11.066;2024-01-06T05:28:25;11.50;99.90
23347;DHT22;36852;45.466;11.066;2024-01-06T05:30:54;11.50;99.90
23347;DHT22;36852;45.466;11.066;2024-01-06T05:33:23;11.50;99.90
23347;DHT22;36852;45.466;11.066;2024-01-06T05:35:51;11.50;99.90
23347;DHT22;36852;45.466;11.066;2024-01-06T05:38:20;11.50;99.90
23347;DHT22;36852;45.466;11.066;2024-01-06T05:40:48;11.40;99.90
23347;DHT22;36852;45.466;11.066;2024-01-06T05:43:16;11.40;99.90
23347;DHT22;36852;45.466;11.066;2024-01-06T05:45:43;11.40;99.90
23347;DHT22;36852;45.466;11.066;2024-01-06T05:48:12;11.40;99.90
23347;DHT22;36852;45.466;11.066;2024-01-06T05:50:40;11.40;99.90
23347;DHT22;36852;45.466;11.066;2024-01-06T05:53:09;11.40;99.90
23347;DHT22;36852;45.466;11.066;2024-01-06T05:55:38;11.40;99.90
23347;DHT22;36852;45.466;11.066;2024-01-06T05:58:06;11.40;99.90
23347;DHT22;36852;45.466;11.066;2024-01-06T06:00:34;11.40;99.90
23347;DHT22;36852;45.466;11.066;2024-01-06T06:03:04;11.40;99.90
23347;DHT22;36852;45.466;11.066;2024-01-06T06:05:32;11.40;99.90
23347;DHT22;36852;45.466;11.066;2024-01-06T06:08:00;11.40;99.90
23347;DHT22;36852;45.466;11.066;2024-01-06T06:10:28;11.40;99.90
23347;DHT22;36852;45.466;11.066;2024-01-06T06:12:58;11.40;99.90
23347;DHT22;36852;45.466;11.066;2024-01-06T06:15:27;11.40;99.90
23347;DHT22;36852;45.466;11.066;2024-01-06T06:17:54;11.40;99.90
23347;DHT22;36852;45.466;11.066;2024-01-06T06:20:24;11.40;99.90
23347;DHT22;36852;45.466;11.066;2024-01-06T06:22:55;11.40;99.90
23347;DHT22;36852;45.466;11.066;2024-01-06T06:25:23;11.40;99.90
23347;DHT22;36852;45.466;11.066;2024-01-06T06:27:51;11.40;99.90
23347;DHT22;36852;45.466;11.066;2024-01-06T06:30:22;11.40;99.90
23347;DHT22;36852;45.466;11.066;2024-01-06T06:32:51;11.40;99.90
23347;DHT22;36852;45.466;11.066;2024-01-06T06:35:19;11.40;99.90
23347;DHT22;36852;45.466;11.066;2024-01-06T06:37:50;11.40;99.90
23347;DHT22;36852;45.466;11.066;2024-01-06T06:40:20;11.40;99.90
23347;DHT22;36852;45.466;11.066;2024-01-06T06:42:49;11.40;99.90
23347;DHT22;36852;45.466;11.066;2024-01-06T06:45:17;11.50;99.90
23347;DHT22;36852;45.466;11.066;2024-01-06T06:47:47;11.50;99.90
23347;DHT22;36852;45.466;11.066;2024-01-06T06:50:18;11.50;99.90
23347;DHT22;36852;45.466;11.066;2024-01-06T06:52:46;11.50;99.90
23347;DHT22;36852;45.466;11.066;2024-01-06T06:55:14;11.50;99.90
23347;DHT22;36852;45.466;11.066;2024-01-06T06:57:43;11.50;99.90
23347;DHT22;36852;45.466;11.066;2024-01-06T07:00:12;11.40;99.90
23347;DHT22;36852;45.466;11.066;2024-01-06T07:02:40;11.40;99.90
23347;DHT22;36852;45.466;11.066;2024-01-06T07:05:08;11.40;99.90
23347;DHT22;36852;45.466;11.066;2024-01-06T07:07:36;11.40;99.90
23347;DHT22;36852;45.466;11.066;2024-01-06T07:10:06;11.40;99.90
23347;DHT22;36852;45.466;11.066;2024-01-06T07:12:34;11.40;99.90
23347;DHT22;36852;45.466;11.066;2024-01-06T07:15:03;11.40;99.90
23347;DHT22;36852;45.466;11.066;2024-01-06T07:17:33;11.40;99.90
23347;DHT22;36852;45.466;11.066;2024-01-06T07:20:02;11.50;99.90
23347;DHT22;36852;45.466;11.066;2024-01-06T07:22:30;11.40;99.90
23347;DHT22;36852;45.466;11.066;2024-01-06T07:24:58;11.50;99.90
23347;DHT22;36852;45.466;11.066;2024-01-06T07:27:27;11.50;99.90
23347;DHT22;36852;45.466;11.066;2024-01-06T07:29:55;11.50;99.90
23347;DHT22;36852;45.466;11.066;2024-01-06T07:32:23;11.50;99.90
23347;DHT22;36852;45.466;11.066;2024-01-06T07:34:52;11.50;99.90
23347;DHT22;36852;45.466;11.066;2024-01-06T07:37:20;11.50;99.90
23347;DHT22;36852;45.466;11.066;2024-01-06T07:39:51;11.50;99.90
23347;DHT22;36852;45.466;11.066;2024-01-06T07:42:19;11.50;99.90
23347;DHT22;36852;45.466;11.066;2024-01-06T07:44:47;11.50;99.90
23347;DHT22;36852;45.466;11.066;2024-01-06T07:47:15;11.40;99.90
23347;DHT22;36852;45.466;11.066;2024-01-06T07:49:44;11.50;99.90
23347;DHT22;36852;45.466;11.066;2024-01-06T07:52:13;11.50;99.90
23347;DHT22;36852;45.466;11.066;2024-01-06T07:54:41;11.30;99.90
23347;DHT22;36852;45.466;11.066;2024-01-06T07:57:09;11.30;99.90
23347;DHT22;36852;45.466;11.066;2024-01-06T07:59:39;11.30;99.90
23347;DHT22;36852;45.466;11.066;2024-01-06T08:02:07;11.30;99.90
23347;DHT22;36852;45.466;11.066;2024-01-06T08:04:37;11.30;99.90
23347;DHT22;36852;45.466;11.066;2024-01-06T08:07:05;11.40;99.90
23347;DHT22;36852;45.466;11.066;2024-01-06T08:09:33;11.40;99.90
23347;DHT22;36852;45.466;11.066;2024-01-06T08:12:03;11.40;99.90
23347;DHT22;36852;45.466;11.066;2024-01-06T08:14:31;11.50;99.90
23347;DHT22;36852;45.466;11.066;2024-01-06T08:17:00;11.50;99.90
23347;DHT22;36852;45.466;11.066;2024-01-06T08:19:28;11.50;99.90
23347;DHT22;36852;45.466;11.066;2024-01-06T08:21:59;11.50;99.90
23347;DHT22;36852;45.466;11.066;2024-01-06T08:24:27;11.50;99.90
23347;DHT22;36852;45.466;11.066;2024-01-06T08:26:56;11.40;99.90
23347;DHT22;36852;45.466;11.066;2024-01-06T08:29:27;11.50;99.90
23347;DHT22;36852;45.466;11.066;2024-01-06T08:31:54;11.50;99.90
23347;DHT22;36852;45.466;11.066;2024-01-06T08:34:40;11.50;99.90
23347;DHT22;36852;45.466;11.066;2024-01-06T08:37:09;11.40;99.90
23347;DHT22;36852;45.466;11.066;2024-01-06T08:39:37;11.50;99.90
23347;DHT22;36852;45.466;11.066;2024-01-06T08:42:06;11.50;99.90
23347;DHT22;36852;45.466;11.066;2024-01-06T08:44:34;11.50;99.90
23347;DHT22;36852;45.466;11.066;2024-01-06T08:47:03;11.50;99.90
23347;DHT22;36852;45.466;11.066;2024-01-06T08:49:31;11.50;99.90
23347;DHT22;36852;45.466;11.066;2024-01-06T08:51:59;11.50;99.90
23347;DHT22;36852;45.466;11.066;2024-01-06T08:54:28;11.50;99.90
23347;DHT22;36852;45.466;11.066;2024-01-06T08:56:56;11.50;99.90
23347;DHT22;36852;45.466;11.066;2024-01-06T08:59:25;11.50;99.90
23347;DHT22;36852;45.466;11.066;2024-01-06T09:01:53;11.50;99.90
23347;DHT22;36852;45.466;11.066;2024-01-06T09:04:21;11.60;99.90
23347;DHT22;36852;45.466;11.066;2024-01-06T09:06:49;11.60;99.90
23347;DHT22;36852;45.466;11.066;2024-01-06T09:09:18;11.60;99.90
23347;DHT22;36852;45.466;11.066;2024-01-06T09:11:46;11.60;99.90
23347;DHT22;36852;45.466;11.066;2024-01-06T09:14:17;11.60;99.90
23347;DHT22;36852;45.466;11.066;2024-01-06T09:16:46;11.50;99.90
23347;DHT22;36852;45.466;11.066;2024-01-06T09:19:14;11.50;99.90
23347;DHT22;36852;45.466;11.066;2024-01-06T09:21:42;11.50;99.90
23347;DHT22;36852;45.466;11.066;2024-01-06T09:24:11;11.50;99.90
23347;DHT22;36852;45.466;11.066;2024-01-06T09:26:40;11.50;99.90
23347;DHT22;36852;45.466;11.066;2024-01-06T09:29:08;11.60;99.90
23347;DHT22;36852;45.466;11.066;2024-01-06T09:31:39;11.60;99.90
23347;DHT22;36852;45.466;11.066;2024-01-06T09:34:09;11.60;99.90
23347;DHT22;36852;45.466;11.066;2024-01-06T09:36:37;11.50;99.90
23347;DHT22;36852;45.466;11.066;2024-01-06T09:39:06;11.60;99.90
23347;DHT22;36852;45.466;11.066;2024-01-06T09:41:35;11.60;99.90
23347;DHT22;36852;45.466;11.066;2024-01-06T09:44:05;11.60;99.90
23347;DHT22;36852;45.466;11.066;2024-01-06T09:46:34;11.60;99.90
23347;DHT22;36852;45.466;11.066;2024-01-06T09:49:03;11.60;99.90
23347;DHT22;36852;45.466;11.066;2024-01-06T09:51:33;11.60;99.90
23347;DHT22;36852;45.466;11.066;2024-01-06T09:54:08;11.60;99.90
23347;DHT22;36852;45.466;11.066;2024-01-06T09:56:36;11.50;99.90
23347;DHT22;36852;45.466;11.066;2024-01-06T09:59:03;11.60;99.90
23347;DHT22;36852;45.466;11.066;2024-01-06T10:01:31;11.60;99.90
23347;DHT22;36852;45.466;11.066;2024-01-06T10:03:59;11.60;99.90
23347;DHT22;36852;45.466;11.066;2024-01-06T10:06:28;11.60;99.90
23347;DHT22;36852;45.466;11.066;2024-01-06T10:08:57;11.60;99.90
23347;DHT22;36852;45.466;11.066;2024-01-06T10:11:25;11.60;99.90
23347;DHT22;36852;45.466;11.066;2024-01-06T10:13:53;11.60;99.90
23347;DHT22;36852;45.466;11.066;2024-01-06T10:16:21;11.60;99.90
23347;DHT22;36852;45.466;11.066;2024-01-06T10:18:50;11.60;99.90
23347;DHT22;36852;45.466;11.066;2024-01-06T10:21:21;11.60;99.90
23347;DHT22;36852;45.466;11.066;2024-01-06T10:23:53;11.60;99.90
23347;DHT22;36852;45.466;11.066;2024-01-06T10:26:22;11.60;99.90
23347;DHT22;36852;45.466;11.066;2024-01-06T10:28:50;11.60;99.90
23347;DHT22;36852;45.466;11.066;2024-01-06T10:31:22;11.70;99.90
23347;DHT22;36852;45.466;11.066;2024-01-06T10:33:50;11.70;99.90
23347;DHT22;36852;45.466;11.066;2024-01-06T10:36:19;11.80;99.90
23347;DHT22;36852;45.466;11.066;2024-01-06T10:38:47;11.80;99.90
23347;DHT22;36852;45.466;11.066;2024-01-06T10:41:16;11.80;99.90
23347;DHT22;36852;45.466;11.066;2024-01-06T10:43:46;11.80;99.90
23347;DHT22;36852;45.466;11.066;2024-01-06T10:46:18;11.80;99.90
23347;DHT22;36852;45.466;11.066;2024-01-06T10:48:47;11.70;99.90
23347;DHT22;36852;45.466;11.066;2024-01-06T10:51:16;11.80;99.90
23347;DHT22;36852;45.466;11.066;2024-01-06T10:53:45;11.90;99.90
23347;DHT22;36852;45.466;11.066;2024-01-06T10:56:15;11.90;99.90
23347;DHT22;36852;45.466;11.066;2024-01-06T10:58:47;12.00;99.90
23347;DHT22;36852;45.466;11.066;2024-01-06T11:01:23;12.00;99.90
23347;DHT22;36852;45.466;11.066;2024-01-06T11:03:57;12.20;99.90
23347;DHT22;36852;45.466;11.066;2024-01-06T11:06:27;12.20;99.90
23347;DHT22;36852;45.466;11.066;2024-01-06T11:09:11;12.20;99.90
23347;DHT22;36852;45.466;11.066;2024-01-06T11:11:39;12.10;99.90
23347;DHT22;36852;45.466;11.066;2024-01-06T11:14:25;12.10;99.90
23347;DHT22;36852;45.466;11.066;2024-01-06T11:16:54;12.10;99.90
23347;DHT22;36852;45.466;11.066;2024-01-06T11:22:26;12.10;99.90
23347;DHT22;36852;45.466;11.066;2024-01-06T11:25:05;12.10;99.90
23347;DHT22;36852;45.466;11.066;2024-01-06T11:27:36;12.00;99.90
23347;DHT22;36852;45.466;11.066;2024-01-06T11:30:05;12.00;99.90
23347;DHT22;36852;45.466;11.066;2024-01-06T11:32:36;12.00;99.90
23347;DHT22;36852;45.466;11.066;2024-01-06T11:35:12;12.00;99.90
23347;DHT22;36852;45.466;11.066;2024-01-06T11:42:59;11.90;99.90
23347;DHT22;36852;45.466;11.066;2024-01-06T11:45:29;11.90;99.90
23347;DHT22;36852;45.466;11.066;2024-01-06T11:48:05;11.90;99.90
23347;DHT22;36852;45.466;11.066;2024-01-06T11:50:37;11.90;99.90
23347;DHT22;36852;45.466;11.066;2024-01-06T11:53:07;11.90;99.90
23347;DHT22;36852;45.466;11.066;2024-01-06T11:55:38;11.90;99.90
23347;DHT22;36852;45.466;11.066;2024-01-06T11:58:07;11.90;99.90
23347;DHT22;36852;45.466;11.066;2024-01-06T12:00:35;11.80;99.90
23347;DHT22;36852;45.466;11.066;2024-01-06T12:03:09;11.80;99.90
23347;DHT22;36852;45.466;11.066;2024-01-06T12:05:37;11.80;99.90
23347;DHT22;36852;45.466;11.066;2024-01-06T12:08:06;11.90;99.90
23347;DHT22;36852;45.466;11.066;2024-01-06T12:10:35;11.80;99.90
23347;DHT22;36852;45.466;11.066;2024-01-06T12:13:06;11.80;99.90
23347;DHT22;36852;45.466;11.066;2024-01-06T12:15:37;11.80;99.90
23347;DHT22;36852;45.466;11.066;2024-01-06T12:18:08;11.90;99.90
23347;DHT22;36852;45.466;11.066;2024-01-06T12:20:37;11.90;99.90
23347;DHT22;36852;45.466;11.066;2024-01-06T12:23:05;11.90;99.90
23347;DHT22;36852;45.466;11.066;2024-01-06T12:25:34;11.90;99.90
23347;DHT22;36852;45.466;11.066;2024-01-06T12:28:05;11.90;99.90
23347;DHT22;36852;45.466;11.066;2024-01-06T12:30:33;11.90;99.90
23347;DHT22;36852;45.466;11.066;2024-01-06T12:33:04;12.00;99.90
23347;DHT22;36852;45.466;11.066;2024-01-06T12:35:34;12.00;99.90
23347;DHT22;36852;45.466;11.066;2024-01-06T12:40:46;11.90;99.90
23347;DHT22;36852;45.466;11.066;2024-01-06T12:43:14;11.90;99.90
23347;DHT22;36852;45.466;11.066;2024-01-06T12:45:42;11.90;99.90
23347;DHT22;36852;45.466;11.066;2024-01-06T12:48:11;11.90;99.90
23347;DHT22;36852;45.466;11.066;2024-01-06T12:50:42;11.90;99.90
23347;DHT22;36852;45.466;11.066;2024-01-06T12:53:10;11.90;99.90
23347;DHT22;36852;45.466;11.066;2024-01-06T12:55:43;11.90;99.90
23347;DHT22;36852;45.466;11.066;2024-01-06T12:58:12;11.80;99.90
23347;DHT22;36852;45.466;11.066;2024-01-06T13:00:41;11.90;99.90
23347;DHT22;36852;45.466;11.066;2024-01-06T13:03:09;11.80;99.90
23347;DHT22;36852;45.466;11.066;2024-01-06T13:05:36;11.90;99.90
23347;DHT22;36852;45.466;11.066;2024-01-06T13:08:08;11.90;99.90
23347;DHT22;36852;45.466;11.066;2024-01-06T13:10:36;11.90;99.90
23347;DHT22;36852;45.466;11.066;2024-01-06T13:13:05;11.90;99.90
23347;DHT22;36852;45.466;11.066;2024-01-06T13:15:33;11.90;99.90
23347;DHT22;36852;45.466;11.066;2024-01-06T13:18:01;11.90;99.90
23347;DHT22;36852;45.466;11.066;2024-01-06T13:20:30;11.90;99.90
23347;DHT22;36852;45.466;11.066;2024-01-06T13:22:58;12.00;99.90
23347;DHT22;36852;45.466;11.066;2024-01-06T13:25:27;11.90;99.90
23347;DHT22;36852;45.466;11.066;2024-01-06T13:27:56;12.00;99.90
23347;DHT22;36852;45.466;11.066;2024-01-06T13:30:24;12.00;99.90
23347;DHT22;36852;45.466;11.066;2024-01-06T13:32:56;12.00;99.90
23347;DHT22;36852;45.466;11.066;2024-01-06T13:35:24;12.00;99.90
23347;DHT22;36852;45.466;11.066;2024-01-06T13:37:53;12.00;99.90
23347;DHT22;36852;45.466;11.066;2024-01-06T13:40:26;12.00;99.90
23347;DHT22;36852;45.466;11.066;2024-01-06T13:42:55;12.00;99.90
23347;DHT22;36852;45.466;11.066;2024-01-06T13:45:23;12.00;99.90
23347;DHT22;36852;45.466;11.066;2024-01-06T13:47:52;12.00;99.90
23347;DHT22;36852;45.466;11.066;2024-01-06T13:50:20;12.00;99.90
23347;DHT22;36852;45.466;11.066;2024-01-06T13:52:49;12.00;99.90
23347;DHT22;36852;45.466;11.066;2024-01-06T13:55:17;12.00;99.90
23347;DHT22;36852;45.466;11.066;2024-01-06T13:57:52;12.00;99.90
23347;DHT22;36852;45.466;11.066;2024-01-06T14:00:21;12.00;99.90
23347;DHT22;36852;45.466;11.066;2024-01-06T14:02:49;12.00;99.90
23347;DHT22;36852;45.466;11.066;2024-01-06T14:05:17;11.90;99.90
23347;DHT22;36852;45.466;11.066;2024-01-06T14:07:47;11.90;99.90
23347;DHT22;36852;45.466;11.066;2024-01-06T14:10:16;11.90;99.90
23347;DHT22;36852;45.466;11.066;2024-01-06T14:12:44;11.90;99.90
23347;DHT22;36852;45.466;11.066;2024-01-06T14:15:12;11.90;99.90
23347;DHT22;36852;45.466;11.066;2024-01-06T14:17:42;12.00;99.90
23347;DHT22;36852;45.466;11.066;2024-01-06T14:20:12;12.00;99.90
23347;DHT22;36852;45.466;11.066;2024-01-06T14:22:41;12.00;99.90
23347;DHT22;36852;45.466;11.066;2024-01-06T14:25:09;12.00;99.90
23347;DHT22;36852;45.466;11.066;2024-01-06T14:27:38;12.00;99.90
23347;DHT22;36852;45.466;11.066;2024-01-06T14:30:08;12.00;99.90
23347;DHT22;36852;45.466;11.066;2024-01-06T14:32:37;12.00;99.90
23347;DHT22;36852;45.466;11.066;2024-01-06T14:35:05;12.00;99.90
23347;DHT22;36852;45.466;11.066;2024-01-06T14:37:38;12.00;99.90
23347;DHT22;36852;45.466;11.066;2024-01-06T14:40:07;12.10;99.90
23347;DHT22;36852;45.466;11.066;2024-01-06T14:42:37;12.00;99.90
23347;DHT22;36852;45.466;11.066;2024-01-06T14:45:09;12.00;99.90
23347;DHT22;36852;45.466;11.066;2024-01-06T14:47:38;12.00;99.90
23347;DHT22;36852;45.466;11.066;2024-01-06T14:50:07;12.00;99.90
23347;DHT22;36852;45.466;11.066;2024-01-06T14:52:35;11.90;99.90
23347;DHT22;36852;45.466;11.066;2024-01-06T14:55:04;11.90;99.90
23347;DHT22;36852;45.466;11.066;2024-01-06T14:57:32;12.00;99.90
23347;DHT22;36852;45.466;11.066;2024-01-06T15:00:01;12.00;99.90
23347;DHT22;36852;45.466;11.066;2024-01-06T15:02:29;12.00;99.90
23347;DHT22;36852;45.466;11.066;2024-01-06T15:04:58;12.00;99.90
23347;DHT22;36852;45.466;11.066;2024-01-06T15:07:25;12.00;99.90
23347;DHT22;36852;45.466;11.066;2024-01-06T15:10:00;12.00;99.90
23347;DHT22;36852;45.466;11.066;2024-01-06T15:12:31;12.00;99.90
23347;DHT22;36852;45.466;11.066;2024-01-06T15:15:03;11.90;99.90
23347;DHT22;36852;45.466;11.066;2024-01-06T15:17:33;11.90;99.90
23347;DHT22;36852;45.466;11.066;2024-01-06T15:20:04;11.90;99.90
23347;DHT22;36852;45.466;11.066;2024-01-06T15:22:32;11.90;99.90
23347;DHT22;36852;45.466;11.066;2024-01-06T15:25:03;11.90;99.90
23347;DHT22;36852;45.466;11.066;2024-01-06T15:27:33;11.90;99.90
23347;DHT22;36852;45.466;11.066;2024-01-06T15:30:01;11.90;99.90
23347;DHT22;36852;45.466;11.066;2024-01-06T15:32:31;11.90;99.90
23347;DHT22;36852;45.466;11.066;2024-01-06T15:34:59;11.90;99.90
23347;DHT22;36852;45.466;11.066;2024-01-06T15:37:27;11.90;99.90